sensor_id;sensor_type;location;lat;lon;timestamp;P1;durP1;ratioP1;P2;durP2;ratioP2
46717;SDS011;32448;44.960;-0.698;2022-12-11T00:00:57;90.40;;;44.05;;
46717;SDS011;32448;44.960;-0.698;2022-12-11T00:03:25;101.88;;;47.78;;
46717;SDS011;32448;44.960;-0.698;2022-12-11T00:05:53;101.65;;;49.92;;
46717;SDS011;32448;44.960;-0.698;2022-12-11T00:08:20;112.70;;;52.97;;
46717;SDS011;32448;44.960;-0.698;2022-12-11T00:10:48;118.95;;;55.97;;
46717;SDS011;32448;44.960;-0.698;2022-12-11T00:13:16;118.07;;;56.05;;
46717;SDS011;32448;44.960;-0.698;2022-12-11T00:15:43;127.72;;;59.03;;
46717;SDS011;32448;44.960;-0.698;2022-12-11T00:18:11;123.13;;;58.70;;
46717;SDS011;32448;44.960;-0.698;2022-12-11T00:20:39;120.05;;;58.28;;
46717;SDS011;32448;44.960;-0.698;2022-12-11T00:23:07;124.03;;;58.08;;
46717;SDS011;32448;44.960;-0.698;2022-12-11T00:25:34;126.55;;;60.03;;
46717;SDS011;32448;44.960;-0.698;2022-12-11T00:28:19;127.82;;;59.20;;
46717;SDS011;32448;44.960;-0.698;2022-12-11T00:30:47;124.40;;;57.28;;
46717;SDS011;32448;44.960;-0.698;2022-12-11T00:33:14;127.50;;;59.10;;
46717;SDS011;32448;44.960;-0.698;2022-12-11T00:35:43;144.82;;;67.25;;
46717;SDS011;32448;44.960;-0.698;2022-12-11T00:38:17;154.30;;;67.85;;
46717;SDS011;32448;44.960;-0.698;2022-12-11T00:40:46;155.65;;;70.28;;
46717;SDS011;32448;44.960;-0.698;2022-12-11T00:43:15;163.43;;;70.35;;
46717;SDS011;32448;44.960;-0.698;2022-12-11T00:45:43;159.00;;;70.88;;
46717;SDS011;32448;44.960;-0.698;2022-12-11T00:48:12;158.38;;;70.28;;
46717;SDS011;32448;44.960;-0.698;2022-12-11T00:50:40;186.45;;;77.55;;
46717;SDS011;32448;44.960;-0.698;2022-12-11T00:53:08;153.05;;;70.95;;
46717;SDS011;32448;44.960;-0.698;2022-12-11T00:55:36;135.85;;;61.90;;
46717;SDS011;32448;44.960;-0.698;2022-12-11T00:58:05;125.90;;;58.72;;
46717;SDS011;32448;44.960;-0.698;2022-12-11T01:00:33;121.32;;;56.05;;
46717;SDS011;32448;44.960;-0.698;2022-12-11T01:03:01;131.45;;;59.75;;
46717;SDS011;32448;44.960;-0.698;2022-12-11T01:05:29;119.65;;;57.30;;
46717;SDS011;32448;44.960;-0.698;2022-12-11T01:07:57;115.97;;;55.83;;
46717;SDS011;32448;44.960;-0.698;2022-12-11T01:10:25;118.88;;;56.67;;
46717;SDS011;32448;44.960;-0.698;2022-12-11T01:13:00;120.90;;;56.58;;
46717;SDS011;32448;44.960;-0.698;2022-12-11T01:15:34;114.97;;;54.10;;
46717;SDS011;32448;44.960;-0.698;2022-12-11T01:18:08;111.13;;;54.05;;
46717;SDS011;32448;44.960;-0.698;2022-12-11T01:20:41;99.75;;;51.42;;
46717;SDS011;32448;44.960;-0.698;2022-12-11T01:23:11;97.00;;;45.83;;
46717;SDS011;32448;44.960;-0.698;2022-12-11T01:25:40;90.38;;;43.88;;
46717;SDS011;32448;44.960;-0.698;2022-12-11T01:28:08;86.57;;;43.60;;
46717;SDS011;32448;44.960;-0.698;2022-12-11T01:30:36;84.88;;;42.33;;
46717;SDS011;32448;44.960;-0.698;2022-12-11T01:33:04;77.43;;;39.28;;
46717;SDS011;32448;44.960;-0.698;2022-12-11T01:35:31;79.40;;;39.72;;
46717;SDS011;32448;44.960;-0.698;2022-12-11T01:37:58;70.45;;;36.58;;
46717;SDS011;32448;44.960;-0.698;2022-12-11T01:40:26;74.13;;;36.92;;
46717;SDS011;32448;44.960;-0.698;2022-12-11T01:42:53;65.15;;;33.72;;
46717;SDS011;32448;44.960;-0.698;2022-12-11T01:45:24;70.07;;;34.80;;
46717;SDS011;32448;44.960;-0.698;2022-12-11T01:50:26;71.47;;;33.58;;
46717;SDS011;32448;44.960;-0.698;2022-12-11T01:52:55;67.57;;;33.42;;
46717;SDS011;32448;44.960;-0.698;2022-12-11T01:55:23;62.42;;;33.38;;
46717;SDS011;32448;44.960;-0.698;2022-12-11T01:57:50;64.10;;;32.40;;
46717;SDS011;32448;44.960;-0.698;2022-12-11T02:00:19;65.70;;;32.50;;
46717;SDS011;32448;44.960;-0.698;2022-12-11T02:02:47;61.05;;;32.55;;
46717;SDS011;32448;44.960;-0.698;2022-12-11T02:05:14;60.63;;;32.83;;
46717;SDS011;32448;44.960;-0.698;2022-12-11T02:07:43;65.35;;;31.88;;
46717;SDS011;32448;44.960;-0.698;2022-12-11T02:10:15;55.87;;;29.97;;
46717;SDS011;32448;44.960;-0.698;2022-12-11T02:15:41;58.05;;;29.75;;
46717;SDS011;32448;44.960;-0.698;2022-12-11T02:18:33;54.00;;;28.42;;
46717;SDS011;32448;44.960;-0.698;2022-12-11T02:23:59;50.47;;;26.05;;
46717;SDS011;32448;44.960;-0.698;2022-12-11T02:29:37;49.47;;;24.48;;
46717;SDS011;32448;44.960;-0.698;2022-12-11T02:35:14;50.08;;;26.48;;
46717;SDS011;32448;44.960;-0.698;2022-12-11T02:37:47;52.88;;;26.88;;
46717;SDS011;32448;44.960;-0.698;2022-12-11T02:40:21;52.70;;;27.23;;
46717;SDS011;32448;44.960;-0.698;2022-12-11T02:42:53;53.35;;;25.83;;
46717;SDS011;32448;44.960;-0.698;2022-12-11T02:45:23;55.00;;;27.17;;
46717;SDS011;32448;44.960;-0.698;2022-12-11T02:47:53;50.83;;;26.35;;
46717;SDS011;32448;44.960;-0.698;2022-12-11T02:50:24;54.22;;;27.95;;
46717;SDS011;32448;44.960;-0.698;2022-12-11T02:52:54;51.15;;;26.08;;
46717;SDS011;32448;44.960;-0.698;2022-12-11T02:55:23;52.17;;;25.95;;
46717;SDS011;32448;44.960;-0.698;2022-12-11T02:58:16;47.70;;;23.85;;
46717;SDS011;32448;44.960;-0.698;2022-12-11T03:00:49;41.78;;;22.95;;
46717;SDS011;32448;44.960;-0.698;2022-12-11T03:03:17;45.53;;;23.33;;
46717;SDS011;32448;44.960;-0.698;2022-12-11T03:05:44;43.55;;;22.95;;
46717;SDS011;32448;44.960;-0.698;2022-12-11T03:08:12;41.17;;;21.30;;
46717;SDS011;32448;44.960;-0.698;2022-12-11T03:10:43;47.17;;;22.88;;
46717;SDS011;32448;44.960;-0.698;2022-12-11T03:13:12;50.35;;;25.52;;
46717;SDS011;32448;44.960;-0.698;2022-12-11T03:18:24;50.42;;;25.40;;
46717;SDS011;32448;44.960;-0.698;2022-12-11T03:21:09;45.97;;;24.02;;
46717;SDS011;32448;44.960;-0.698;2022-12-11T03:23:51;46.85;;;25.00;;
46717;SDS011;32448;44.960;-0.698;2022-12-11T03:26:28;46.78;;;23.45;;
46717;SDS011;32448;44.960;-0.698;2022-12-11T03:28:59;44.17;;;23.15;;
46717;SDS011;32448;44.960;-0.698;2022-12-11T03:31:41;41.88;;;22.20;;
46717;SDS011;32448;44.960;-0.698;2022-12-11T03:34:14;40.53;;;20.55;;
46717;SDS011;32448;44.960;-0.698;2022-12-11T03:37:02;44.65;;;21.05;;
46717;SDS011;32448;44.960;-0.698;2022-12-11T03:39:32;38.92;;;20.27;;
46717;SDS011;32448;44.960;-0.698;2022-12-11T03:42:05;39.83;;;20.88;;
46717;SDS011;32448;44.960;-0.698;2022-12-11T03:44:36;38.20;;;19.63;;
46717;SDS011;32448;44.960;-0.698;2022-12-11T03:47:05;40.28;;;20.35;;
46717;SDS011;32448;44.960;-0.698;2022-12-11T03:49:39;38.97;;;21.20;;
46717;SDS011;32448;44.960;-0.698;2022-12-11T03:52:09;41.50;;;21.92;;
46717;SDS011;32448;44.960;-0.698;2022-12-11T03:54:39;45.85;;;21.85;;
46717;SDS011;32448;44.960;-0.698;2022-12-11T03:57:10;43.90;;;21.88;;
46717;SDS011;32448;44.960;-0.698;2022-12-11T03:59:42;40.13;;;20.90;;
46717;SDS011;32448;44.960;-0.698;2022-12-11T04:02:10;41.38;;;21.13;;
46717;SDS011;32448;44.960;-0.698;2022-12-11T04:04:38;38.45;;;20.13;;
46717;SDS011;32448;44.960;-0.698;2022-12-11T04:07:09;41.60;;;22.70;;
46717;SDS011;32448;44.960;-0.698;2022-12-11T04:09:36;43.95;;;22.08;;
46717;SDS011;32448;44.960;-0.698;2022-12-11T04:12:04;44.67;;;22.42;;
46717;SDS011;32448;44.960;-0.698;2022-12-11T04:14:31;41.75;;;21.35;;
46717;SDS011;32448;44.960;-0.698;2022-12-11T04:17:17;41.45;;;20.70;;
46717;SDS011;32448;44.960;-0.698;2022-12-11T04:20:05;41.00;;;20.08;;
46717;SDS011;32448;44.960;-0.698;2022-12-11T04:22:51;38.42;;;20.10;;
46717;SDS011;32448;44.960;-0.698;2022-12-11T04:25:38;42.33;;;19.40;;
46717;SDS011;32448;44.960;-0.698;2022-12-11T04:28:05;36.80;;;19.10;;
46717;SDS011;32448;44.960;-0.698;2022-12-11T04:30:32;40.97;;;19.92;;
46717;SDS011;32448;44.960;-0.698;2022-12-11T04:33:00;40.50;;;21.83;;
46717;SDS011;32448;44.960;-0.698;2022-12-11T04:35:28;38.50;;;19.90;;
46717;SDS011;32448;44.960;-0.698;2022-12-11T04:37:55;39.53;;;19.73;;
46717;SDS011;32448;44.960;-0.698;2022-12-11T04:40:23;32.88;;;18.70;;
46717;SDS011;32448;44.960;-0.698;2022-12-11T04:42:50;37.90;;;18.73;;
46717;SDS011;32448;44.960;-0.698;2022-12-11T04:45:18;37.72;;;18.02;;
46717;SDS011;32448;44.960;-0.698;2022-12-11T04:47:45;39.15;;;20.33;;
46717;SDS011;32448;44.960;-0.698;2022-12-11T04:50:13;42.13;;;19.80;;
46717;SDS011;32448;44.960;-0.698;2022-12-11T04:52:42;35.45;;;18.83;;
46717;SDS011;32448;44.960;-0.698;2022-12-11T04:55:10;38.13;;;18.58;;
46717;SDS011;32448;44.960;-0.698;2022-12-11T04:57:39;41.05;;;18.77;;
46717;SDS011;32448;44.960;-0.698;2022-12-11T05:00:08;37.63;;;19.10;;
46717;SDS011;32448;44.960;-0.698;2022-12-11T05:02:41;39.92;;;19.80;;
46717;SDS011;32448;44.960;-0.698;2022-12-11T05:05:10;34.13;;;17.70;;
46717;SDS011;32448;44.960;-0.698;2022-12-11T05:07:39;35.00;;;18.40;;
46717;SDS011;32448;44.960;-0.698;2022-12-11T05:10:06;38.15;;;18.20;;
46717;SDS011;32448;44.960;-0.698;2022-12-11T05:12:34;37.53;;;18.30;;
46717;SDS011;32448;44.960;-0.698;2022-12-11T05:15:02;38.00;;;18.50;;
46717;SDS011;32448;44.960;-0.698;2022-12-11T05:17:29;33.80;;;17.02;;
46717;SDS011;32448;44.960;-0.698;2022-12-11T05:19:57;33.22;;;17.92;;
46717;SDS011;32448;44.960;-0.698;2022-12-11T05:22:24;38.20;;;18.45;;
46717;SDS011;32448;44.960;-0.698;2022-12-11T05:24:52;35.75;;;18.08;;
46717;SDS011;32448;44.960;-0.698;2022-12-11T05:27:19;34.45;;;18.20;;
46717;SDS011;32448;44.960;-0.698;2022-12-11T05:29:46;34.17;;;17.85;;
46717;SDS011;32448;44.960;-0.698;2022-12-11T05:32:14;32.53;;;17.85;;
46717;SDS011;32448;44.960;-0.698;2022-12-11T05:34:42;36.22;;;17.55;;
46717;SDS011;32448;44.960;-0.698;2022-12-11T05:37:09;36.60;;;18.95;;
46717;SDS011;32448;44.960;-0.698;2022-12-11T05:39:37;33.00;;;18.33;;
46717;SDS011;32448;44.960;-0.698;2022-12-11T05:42:05;34.97;;;17.85;;
46717;SDS011;32448;44.960;-0.698;2022-12-11T05:44:32;37.65;;;18.08;;
46717;SDS011;32448;44.960;-0.698;2022-12-11T05:46:59;36.75;;;18.10;;
46717;SDS011;32448;44.960;-0.698;2022-12-11T05:49:27;35.15;;;17.25;;
46717;SDS011;32448;44.960;-0.698;2022-12-11T05:51:56;36.28;;;17.67;;
46717;SDS011;32448;44.960;-0.698;2022-12-11T05:54:24;35.65;;;17.55;;
46717;SDS011;32448;44.960;-0.698;2022-12-11T05:56:51;34.25;;;17.90;;
46717;SDS011;32448;44.960;-0.698;2022-12-11T05:59:18;35.30;;;18.00;;
46717;SDS011;32448;44.960;-0.698;2022-12-11T06:01:46;32.50;;;16.58;;
46717;SDS011;32448;44.960;-0.698;2022-12-11T06:04:14;34.63;;;17.88;;
46717;SDS011;32448;44.960;-0.698;2022-12-11T06:06:42;34.42;;;16.25;;
46717;SDS011;32448;44.960;-0.698;2022-12-11T06:09:16;34.08;;;16.60;;
46717;SDS011;32448;44.960;-0.698;2022-12-11T06:11:47;31.70;;;16.70;;
46717;SDS011;32448;44.960;-0.698;2022-12-11T06:14:15;30.73;;;15.50;;
46717;SDS011;32448;44.960;-0.698;2022-12-11T06:16:43;32.47;;;16.73;;
46717;SDS011;32448;44.960;-0.698;2022-12-11T06:19:14;34.58;;;16.92;;
46717;SDS011;32448;44.960;-0.698;2022-12-11T06:21:44;34.92;;;17.33;;
46717;SDS011;32448;44.960;-0.698;2022-12-11T06:24:12;34.30;;;15.98;;
46717;SDS011;32448;44.960;-0.698;2022-12-11T06:26:39;33.80;;;17.20;;
46717;SDS011;32448;44.960;-0.698;2022-12-11T06:29:07;33.72;;;16.27;;
46717;SDS011;32448;44.960;-0.698;2022-12-11T06:31:38;31.92;;;16.42;;
46717;SDS011;32448;44.960;-0.698;2022-12-11T06:34:07;31.58;;;16.17;;
46717;SDS011;32448;44.960;-0.698;2022-12-11T06:36:34;34.17;;;15.82;;
46717;SDS011;32448;44.960;-0.698;2022-12-11T06:39:02;29.95;;;16.05;;
46717;SDS011;32448;44.960;-0.698;2022-12-11T06:41:30;32.88;;;16.10;;
46717;SDS011;32448;44.960;-0.698;2022-12-11T06:43:58;34.30;;;17.45;;
46717;SDS011;32448;44.960;-0.698;2022-12-11T06:46:25;34.63;;;18.42;;
46717;SDS011;32448;44.960;-0.698;2022-12-11T06:48:53;33.25;;;17.67;;
46717;SDS011;32448;44.960;-0.698;2022-12-11T06:51:21;35.78;;;17.20;;
46717;SDS011;32448;44.960;-0.698;2022-12-11T06:53:53;35.60;;;17.23;;
46717;SDS011;32448;44.960;-0.698;2022-12-11T06:56:22;34.88;;;16.65;;
46717;SDS011;32448;44.960;-0.698;2022-12-11T06:58:51;34.90;;;17.10;;
46717;SDS011;32448;44.960;-0.698;2022-12-11T07:01:25;33.47;;;16.67;;
46717;SDS011;32448;44.960;-0.698;2022-12-11T07:03:54;37.70;;;18.50;;
46717;SDS011;32448;44.960;-0.698;2022-12-11T07:06:23;34.97;;;17.40;;
46717;SDS011;32448;44.960;-0.698;2022-12-11T07:08:54;33.92;;;17.23;;
46717;SDS011;32448;44.960;-0.698;2022-12-11T07:11:22;36.92;;;18.05;;
46717;SDS011;32448;44.960;-0.698;2022-12-11T07:13:50;35.83;;;17.58;;
46717;SDS011;32448;44.960;-0.698;2022-12-11T07:16:18;41.33;;;18.05;;
46717;SDS011;32448;44.960;-0.698;2022-12-11T07:18:47;38.75;;;17.83;;
46717;SDS011;32448;44.960;-0.698;2022-12-11T07:21:17;34.30;;;17.55;;
46717;SDS011;32448;44.960;-0.698;2022-12-11T07:23:45;37.38;;;18.13;;
46717;SDS011;32448;44.960;-0.698;2022-12-11T07:26:15;37.20;;;18.38;;
46717;SDS011;32448;44.960;-0.698;2022-12-11T07:28:47;38.10;;;18.67;;
46717;SDS011;32448;44.960;-0.698;2022-12-11T07:31:19;37.78;;;17.25;;
46717;SDS011;32448;44.960;-0.698;2022-12-11T07:33:52;33.90;;;16.42;;
46717;SDS011;32448;44.960;-0.698;2022-12-11T07:36:21;39.97;;;18.23;;
46717;SDS011;32448;44.960;-0.698;2022-12-11T07:38:49;33.50;;;17.52;;
46717;SDS011;32448;44.960;-0.698;2022-12-11T07:41:17;37.72;;;18.05;;
46717;SDS011;32448;44.960;-0.698;2022-12-11T07:43:51;37.03;;;17.55;;
46717;SDS011;32448;44.960;-0.698;2022-12-11T07:46:20;35.45;;;17.48;;
46717;SDS011;32448;44.960;-0.698;2022-12-11T07:48:49;36.90;;;18.00;;
46717;SDS011;32448;44.960;-0.698;2022-12-11T07:51:22;39.17;;;18.70;;
46717;SDS011;32448;44.960;-0.698;2022-12-11T07:53:56;36.92;;;18.13;;
46717;SDS011;32448;44.960;-0.698;2022-12-11T07:56:25;36.50;;;17.88;;
46717;SDS011;32448;44.960;-0.698;2022-12-11T07:58:54;38.28;;;18.42;;
46717;SDS011;32448;44.960;-0.698;2022-12-11T08:01:22;33.05;;;16.92;;
46717;SDS011;32448;44.960;-0.698;2022-12-11T08:03:52;34.85;;;17.23;;
46717;SDS011;32448;44.960;-0.698;2022-12-11T08:06:25;37.63;;;17.80;;
46717;SDS011;32448;44.960;-0.698;2022-12-11T08:11:23;32.47;;;17.27;;
46717;SDS011;32448;44.960;-0.698;2022-12-11T08:13:52;37.80;;;18.67;;
46717;SDS011;32448;44.960;-0.698;2022-12-11T08:16:20;32.97;;;17.13;;
46717;SDS011;32448;44.960;-0.698;2022-12-11T08:18:49;37.28;;;17.63;;
46717;SDS011;32448;44.960;-0.698;2022-12-11T08:21:18;34.63;;;17.33;;
46717;SDS011;32448;44.960;-0.698;2022-12-11T08:23:48;33.17;;;17.52;;
46717;SDS011;32448;44.960;-0.698;2022-12-11T08:26:23;36.17;;;17.63;;
46717;SDS011;32448;44.960;-0.698;2022-12-11T08:28:53;36.85;;;17.73;;
46717;SDS011;32448;44.960;-0.698;2022-12-11T08:31:21;35.15;;;17.67;;
46717;SDS011;32448;44.960;-0.698;2022-12-11T08:33:50;38.83;;;18.30;;
46717;SDS011;32448;44.960;-0.698;2022-12-11T08:36:19;37.42;;;17.65;;
46717;SDS011;32448;44.960;-0.698;2022-12-11T08:38:48;36.05;;;18.08;;
46717;SDS011;32448;44.960;-0.698;2022-12-11T08:41:20;36.03;;;17.55;;
46717;SDS011;32448;44.960;-0.698;2022-12-11T08:43:50;36.17;;;17.67;;
46717;SDS011;32448;44.960;-0.698;2022-12-11T08:46:22;35.03;;;18.15;;
46717;SDS011;32448;44.960;-0.698;2022-12-11T08:48:53;38.47;;;19.13;;
46717;SDS011;32448;44.960;-0.698;2022-12-11T08:51:22;35.53;;;17.67;;
46717;SDS011;32448;44.960;-0.698;2022-12-11T08:53:59;33.42;;;17.52;;
46717;SDS011;32448;44.960;-0.698;2022-12-11T08:56:27;35.40;;;18.02;;
46717;SDS011;32448;44.960;-0.698;2022-12-11T08:58:58;36.00;;;18.30;;
46717;SDS011;32448;44.960;-0.698;2022-12-11T09:01:27;35.35;;;18.75;;
46717;SDS011;32448;44.960;-0.698;2022-12-11T09:03:55;37.58;;;18.45;;
46717;SDS011;32448;44.960;-0.698;2022-12-11T09:06:25;42.92;;;19.30;;
46717;SDS011;32448;44.960;-0.698;2022-12-11T09:08:55;37.05;;;18.83;;
46717;SDS011;32448;44.960;-0.698;2022-12-11T09:11:27;38.80;;;20.30;;
46717;SDS011;32448;44.960;-0.698;2022-12-11T09:13:56;39.63;;;18.85;;
46717;SDS011;32448;44.960;-0.698;2022-12-11T09:16:33;38.22;;;19.30;;
46717;SDS011;32448;44.960;-0.698;2022-12-11T09:19:07;38.30;;;18.77;;
46717;SDS011;32448;44.960;-0.698;2022-12-11T09:21:41;37.25;;;19.20;;
46717;SDS011;32448;44.960;-0.698;2022-12-11T09:24:10;35.65;;;18.45;;
46717;SDS011;32448;44.960;-0.698;2022-12-11T09:26:39;34.33;;;18.52;;
46717;SDS011;32448;44.960;-0.698;2022-12-11T09:29:07;37.38;;;18.35;;
46717;SDS011;32448;44.960;-0.698;2022-12-11T09:31:36;35.38;;;18.38;;
46717;SDS011;32448;44.960;-0.698;2022-12-11T09:34:06;37.83;;;18.95;;
46717;SDS011;32448;44.960;-0.698;2022-12-11T09:36:38;36.57;;;18.53;;
46717;SDS011;32448;44.960;-0.698;2022-12-11T09:39:07;36.53;;;18.13;;
46717;SDS011;32448;44.960;-0.698;2022-12-11T09:41:36;35.58;;;17.50;;
46717;SDS011;32448;44.960;-0.698;2022-12-11T09:46:37;34.35;;;17.48;;
46717;SDS011;32448;44.960;-0.698;2022-12-11T09:49:10;37.78;;;18.55;;
46717;SDS011;32448;44.960;-0.698;2022-12-11T09:51:48;37.10;;;18.33;;
46717;SDS011;32448;44.960;-0.698;2022-12-11T09:54:24;34.05;;;17.92;;
46717;SDS011;32448;44.960;-0.698;2022-12-11T09:59:46;37.63;;;19.00;;
46717;SDS011;32448;44.960;-0.698;2022-12-11T10:02:14;37.00;;;19.27;;
46717;SDS011;32448;44.960;-0.698;2022-12-11T10:07:59;32.67;;;17.23;;
46717;SDS011;32448;44.960;-0.698;2022-12-11T10:10:54;32.95;;;17.50;;
46717;SDS011;32448;44.960;-0.698;2022-12-11T10:13:49;33.22;;;17.30;;
46717;SDS011;32448;44.960;-0.698;2022-12-11T10:18:54;35.72;;;17.80;;
46717;SDS011;32448;44.960;-0.698;2022-12-11T10:21:22;32.75;;;17.33;;
46717;SDS011;32448;44.960;-0.698;2022-12-11T10:23:52;34.33;;;17.90;;
46717;SDS011;32448;44.960;-0.698;2022-12-11T10:26:25;31.17;;;17.20;;
46717;SDS011;32448;44.960;-0.698;2022-12-11T10:28:56;35.80;;;18.42;;
46717;SDS011;32448;44.960;-0.698;2022-12-11T10:31:47;35.35;;;17.83;;
46717;SDS011;32448;44.960;-0.698;2022-12-11T10:37:10;37.55;;;18.63;;
46717;SDS011;32448;44.960;-0.698;2022-12-11T10:39:37;33.35;;;17.80;;
46717;SDS011;32448;44.960;-0.698;2022-12-11T10:42:12;37.33;;;18.80;;
46717;SDS011;32448;44.960;-0.698;2022-12-11T10:45:00;33.95;;;17.30;;
46717;SDS011;32448;44.960;-0.698;2022-12-11T10:47:29;31.48;;;16.23;;
46717;SDS011;32448;44.960;-0.698;2022-12-11T10:49:59;34.25;;;18.65;;
46717;SDS011;32448;44.960;-0.698;2022-12-11T10:52:32;34.22;;;17.05;;
46717;SDS011;32448;44.960;-0.698;2022-12-11T10:55:21;34.97;;;17.35;;
46717;SDS011;32448;44.960;-0.698;2022-12-11T10:57:54;32.88;;;17.83;;
46717;SDS011;32448;44.960;-0.698;2022-12-11T11:00:33;34.88;;;17.88;;
46717;SDS011;32448;44.960;-0.698;2022-12-11T11:03:21;33.80;;;19.20;;
46717;SDS011;32448;44.960;-0.698;2022-12-11T11:06:15;33.90;;;17.08;;
46717;SDS011;32448;44.960;-0.698;2022-12-11T11:08:44;32.65;;;16.65;;
46717;SDS011;32448;44.960;-0.698;2022-12-11T11:11:35;33.47;;;18.10;;
46717;SDS011;32448;44.960;-0.698;2022-12-11T11:14:06;28.75;;;16.23;;
46717;SDS011;32448;44.960;-0.698;2022-12-11T11:16:48;32.88;;;16.77;;
46717;SDS011;32448;44.960;-0.698;2022-12-11T11:21:50;37.13;;;19.20;;
46717;SDS011;32448;44.960;-0.698;2022-12-11T11:24:26;31.45;;;17.33;;
46717;SDS011;32448;44.960;-0.698;2022-12-11T11:27:02;31.52;;;16.17;;
46717;SDS011;32448;44.960;-0.698;2022-12-11T11:30:00;30.42;;;15.60;;
46717;SDS011;32448;44.960;-0.698;2022-12-11T11:32:37;30.40;;;16.40;;
46717;SDS011;32448;44.960;-0.698;2022-12-11T11:37:44;33.05;;;17.35;;
46717;SDS011;32448;44.960;-0.698;2022-12-11T11:40:24;29.25;;;16.77;;
46717;SDS011;32448;44.960;-0.698;2022-12-11T11:46:11;35.85;;;16.95;;
46717;SDS011;32448;44.960;-0.698;2022-12-11T11:54:43;29.67;;;16.20;;
46717;SDS011;32448;44.960;-0.698;2022-12-11T12:00:22;29.88;;;16.73;;
46717;SDS011;32448;44.960;-0.698;2022-12-11T12:03:10;30.35;;;15.65;;
46717;SDS011;32448;44.960;-0.698;2022-12-11T12:05:44;27.52;;;15.52;;
46717;SDS011;32448;44.960;-0.698;2022-12-11T12:11:22;30.05;;;16.13;;
46717;SDS011;32448;44.960;-0.698;2022-12-11T12:20:08;27.88;;;15.80;;
46717;SDS011;32448;44.960;-0.698;2022-12-11T12:22:56;27.88;;;15.32;;
46717;SDS011;32448;44.960;-0.698;2022-12-11T12:25:36;28.33;;;14.60;;
46717;SDS011;32448;44.960;-0.698;2022-12-11T12:42:26;24.27;;;14.10;;
46717;SDS011;32448;44.960;-0.698;2022-12-11T12:47:43;24.40;;;14.27;;
46717;SDS011;32448;44.960;-0.698;2022-12-11T12:50:20;26.52;;;14.38;;
46717;SDS011;32448;44.960;-0.698;2022-12-11T12:52:51;22.58;;;13.20;;
46717;SDS011;32448;44.960;-0.698;2022-12-11T12:55:26;25.67;;;14.32;;
46717;SDS011;32448;44.960;-0.698;2022-12-11T12:58:03;25.95;;;14.10;;
46717;SDS011;32448;44.960;-0.698;2022-12-11T13:00:37;22.05;;;12.73;;
46717;SDS011;32448;44.960;-0.698;2022-12-11T13:05:43;24.27;;;13.27;;
46717;SDS011;32448;44.960;-0.698;2022-12-11T13:08:29;21.52;;;12.52;;
46717;SDS011;32448;44.960;-0.698;2022-12-11T13:11:05;21.98;;;12.57;;
46717;SDS011;32448;44.960;-0.698;2022-12-11T13:13:47;20.60;;;12.57;;
46717;SDS011;32448;44.960;-0.698;2022-12-11T13:16:35;24.73;;;12.75;;
46717;SDS011;32448;44.960;-0.698;2022-12-11T13:22:16;20.70;;;12.35;;
46717;SDS011;32448;44.960;-0.698;2022-12-11T13:24:55;22.85;;;13.20;;
46717;SDS011;32448;44.960;-0.698;2022-12-11T13:30:03;25.75;;;13.38;;
46717;SDS011;32448;44.960;-0.698;2022-12-11T13:32:51;22.30;;;12.77;;
46717;SDS011;32448;44.960;-0.698;2022-12-11T13:35:23;24.27;;;13.10;;
46717;SDS011;32448;44.960;-0.698;2022-12-11T13:37:51;21.98;;;12.60;;
46717;SDS011;32448;44.960;-0.698;2022-12-11T13:40:23;23.73;;;13.65;;
46717;SDS011;32448;44.960;-0.698;2022-12-11T13:43:01;24.35;;;12.90;;
46717;SDS011;32448;44.960;-0.698;2022-12-11T13:48:22;23.23;;;13.07;;
46717;SDS011;32448;44.960;-0.698;2022-12-11T13:51:07;24.15;;;12.70;;
46717;SDS011;32448;44.960;-0.698;2022-12-11T13:53:44;22.05;;;13.32;;
46717;SDS011;32448;44.960;-0.698;2022-12-11T13:56:17;22.40;;;12.27;;
46717;SDS011;32448;44.960;-0.698;2022-12-11T13:58:46;24.45;;;13.25;;
46717;SDS011;32448;44.960;-0.698;2022-12-11T14:01:25;20.50;;;11.65;;
46717;SDS011;32448;44.960;-0.698;2022-12-11T14:04:01;21.05;;;12.63;;
46717;SDS011;32448;44.960;-0.698;2022-12-11T14:06:42;22.05;;;12.38;;
46717;SDS011;32448;44.960;-0.698;2022-12-11T14:09:13;21.83;;;11.80;;
46717;SDS011;32448;44.960;-0.698;2022-12-11T14:11:49;19.58;;;11.90;;
46717;SDS011;32448;44.960;-0.698;2022-12-11T14:14:39;21.42;;;12.25;;
46717;SDS011;32448;44.960;-0.698;2022-12-11T14:17:11;20.40;;;11.65;;
46717;SDS011;32448;44.960;-0.698;2022-12-11T14:19:45;22.00;;;12.88;;
46717;SDS011;32448;44.960;-0.698;2022-12-11T14:22:18;23.00;;;12.38;;
46717;SDS011;32448;44.960;-0.698;2022-12-11T14:24:49;21.75;;;12.80;;
46717;SDS011;32448;44.960;-0.698;2022-12-11T14:27:20;19.95;;;12.70;;
46717;SDS011;32448;44.960;-0.698;2022-12-11T14:29:49;20.45;;;12.73;;
46717;SDS011;32448;44.960;-0.698;2022-12-11T14:35:17;20.23;;;11.40;;
46717;SDS011;32448;44.960;-0.698;2022-12-11T14:40:22;21.02;;;11.00;;
46717;SDS011;32448;44.960;-0.698;2022-12-11T14:42:56;18.65;;;11.50;;
46717;SDS011;32448;44.960;-0.698;2022-12-11T14:45:35;19.58;;;11.15;;
46717;SDS011;32448;44.960;-0.698;2022-12-11T14:48:46;20.38;;;11.10;;
46717;SDS011;32448;44.960;-0.698;2022-12-11T14:51:11;17.80;;;11.18;;
46717;SDS011;32448;44.960;-0.698;2022-12-11T14:53:45;20.17;;;11.70;;
46717;SDS011;32448;44.960;-0.698;2022-12-11T14:56:21;20.98;;;11.07;;
46717;SDS011;32448;44.960;-0.698;2022-12-11T14:58:53;18.20;;;10.65;;
46717;SDS011;32448;44.960;-0.698;2022-12-11T15:01:30;20.55;;;10.70;;
46717;SDS011;32448;44.960;-0.698;2022-12-11T15:06:50;19.80;;;10.63;;
46717;SDS011;32448;44.960;-0.698;2022-12-11T15:09:26;16.73;;;10.75;;
46717;SDS011;32448;44.960;-0.698;2022-12-11T15:14:44;24.50;;;10.15;;
46717;SDS011;32448;44.960;-0.698;2022-12-11T15:17:34;27.30;;;15.88;;
46717;SDS011;32448;44.960;-0.698;2022-12-11T15:20:18;36.33;;;19.33;;
46717;SDS011;32448;44.960;-0.698;2022-12-11T15:25:16;21.50;;;12.18;;
46717;SDS011;32448;44.960;-0.698;2022-12-11T15:27:52;23.30;;;12.85;;
46717;SDS011;32448;44.960;-0.698;2022-12-11T15:35:37;19.23;;;11.52;;
46717;SDS011;32448;44.960;-0.698;2022-12-11T15:38:23;19.27;;;10.23;;
46717;SDS011;32448;44.960;-0.698;2022-12-11T15:40:56;19.58;;;10.55;;
46717;SDS011;32448;44.960;-0.698;2022-12-11T15:43:25;22.50;;;10.90;;
46717;SDS011;32448;44.960;-0.698;2022-12-11T15:45:54;30.92;;;10.48;;
46717;SDS011;32448;44.960;-0.698;2022-12-11T15:48:23;25.33;;;10.75;;
46717;SDS011;32448;44.960;-0.698;2022-12-11T15:50:51;18.65;;;10.50;;
46717;SDS011;32448;44.960;-0.698;2022-12-11T15:53:18;21.55;;;9.95;;
46717;SDS011;32448;44.960;-0.698;2022-12-11T15:55:49;27.17;;;11.85;;
46717;SDS011;32448;44.960;-0.698;2022-12-11T15:58:18;25.30;;;13.77;;
46717;SDS011;32448;44.960;-0.698;2022-12-11T16:00:47;24.30;;;13.90;;
46717;SDS011;32448;44.960;-0.698;2022-12-11T16:03:16;28.02;;;13.25;;
46717;SDS011;32448;44.960;-0.698;2022-12-11T16:05:51;25.95;;;13.40;;
46717;SDS011;32448;44.960;-0.698;2022-12-11T16:08:22;28.50;;;13.40;;
46717;SDS011;32448;44.960;-0.698;2022-12-11T16:10:53;23.33;;;13.85;;
46717;SDS011;32448;44.960;-0.698;2022-12-11T16:13:22;24.20;;;13.80;;
46717;SDS011;32448;44.960;-0.698;2022-12-11T16:15:52;24.67;;;13.70;;
46717;SDS011;32448;44.960;-0.698;2022-12-11T16:18:21;25.15;;;13.48;;
46717;SDS011;32448;44.960;-0.698;2022-12-11T16:20:50;22.67;;;13.10;;
46717;SDS011;32448;44.960;-0.698;2022-12-11T16:23:18;22.92;;;12.13;;